CheckWX is a tool to help pilots better visualize weather data.  It is not intended as a substitute for an official pre-flight weather briefing.

03:25:33 UTC

PAOM METAR
Nome Airport
Nome, Alaska, USA
Current

33 mins ago

PAOM 260253Z 24012KT 10SM SCT011 11/08 A2994 RMK AO2 SLP138 T01110083 53003
Observed
Aug-26 @ 02:53 UTC
Wind
  • 240° at 12 KTS
Visibility
10 SM
Flight Rules
VFR
Cloud Levels
  • Scattered at 1,100' AGL
Temperature
11°C / 52°F
Dewpoint
C / 46°F
Humidity
82%
Altimeter
29.94" Hg
Pressure
1013.92 hPa
Previous

2 hours ago

PAOM 260153Z 25011KT 10SM SCT011 11/08 A2993 RMK AO2 SLP136 T01110083
Observed
Aug-26 @ 01:53 UTC
Wind
  • 250° at 11 KTS
Visibility
10 SM
Flight Rules
VFR
Cloud Levels
  • Scattered at 1,100' AGL
Temperature
11°C / 52°F
Dewpoint
C / 46°F
Humidity
82%
Altimeter
29.93" Hg
Pressure
1013.52 hPa
Previous

3 hours ago

PAOM 260053Z 24011KT 10SM BKN010 11/08 A2993 RMK AO2 SLP135 T01110083
Observed
Aug-26 @ 00:53 UTC
Wind
  • 240° at 11 KTS
Visibility
10 SM
Flight Rules
MVFR
Cloud Levels
  • Broken at 1,000' AGL
Temperature
11°C / 52°F
Dewpoint
C / 46°F
Humidity
82%
Altimeter
29.93" Hg
Pressure
1013.52 hPa